createdAt,value
2022-11-14T00:01:01.898Z,99.90
2022-11-14T00:03:52.355Z,99.90
2022-11-14T00:06:39.758Z,99.90
2022-11-14T00:09:27.898Z,99.90
2022-11-14T00:12:15.272Z,99.90
2022-11-14T00:15:04.090Z,99.90
2022-11-14T00:17:51.498Z,99.90
2022-11-14T00:20:39.195Z,99.90
2022-11-14T00:23:26.593Z,99.90
2022-11-14T00:26:13.849Z,99.90
2022-11-14T00:29:01.218Z,99.90
2022-11-14T00:31:50.028Z,99.90
2022-11-14T00:34:37.657Z,99.90
2022-11-14T00:37:24.978Z,99.90
2022-11-14T00:40:14.740Z,99.90
2022-11-14T00:43:03.094Z,99.90
2022-11-14T00:45:50.358Z,99.90
2022-11-14T00:48:39.066Z,99.90
2022-11-14T00:51:26.559Z,99.90
2022-11-14T00:54:13.935Z,99.90
2022-11-14T00:57:00.984Z,99.90
2022-11-14T00:59:48.307Z,99.90
2022-11-14T01:02:37.712Z,99.90
2022-11-14T01:05:26.797Z,99.90
2022-11-14T01:08:15.435Z,99.90
2022-11-14T01:11:03.195Z,99.90
2022-11-14T01:13:50.826Z,99.90
2022-11-14T01:16:40.356Z,99.90
2022-11-14T01:19:27.630Z,99.90
2022-11-14T01:22:16.456Z,99.90
2022-11-14T01:25:03.854Z,99.90
2022-11-14T01:27:51.555Z,99.90
2022-11-14T01:30:39.071Z,99.90
2022-11-14T01:33:26.454Z,99.90
2022-11-14T01:36:13.774Z,99.90
2022-11-14T01:39:02.566Z,99.90
2022-11-14T01:41:50.207Z,99.90
2022-11-14T01:45:04.240Z,99.90
2022-11-14T01:47:51.907Z,99.90
2022-11-14T01:50:39.308Z,99.90
2022-11-14T01:53:27.025Z,99.90
2022-11-14T01:56:19.012Z,99.90
2022-11-14T01:59:09.615Z,99.90
2022-11-14T02:01:59.504Z,99.90
2022-11-14T02:04:50.245Z,99.90
2022-11-14T02:07:42.360Z,99.90
2022-11-14T02:10:30.043Z,99.90
2022-11-14T02:13:18.820Z,99.90
2022-11-14T02:16:07.253Z,99.90
2022-11-14T02:18:54.903Z,99.90
2022-11-14T02:21:44.005Z,99.90
2022-11-14T02:24:31.368Z,99.90
2022-11-14T02:27:18.813Z,99.90
2022-11-14T02:30:09.078Z,99.90
2022-11-14T02:33:10.435Z,99.90
2022-11-14T02:35:58.239Z,99.90
2022-11-14T02:38:47.017Z,99.90
2022-11-14T02:41:34.581Z,99.90
2022-11-14T02:44:21.974Z,99.90
2022-11-14T02:47:09.146Z,99.90
2022-11-14T02:49:56.683Z,99.90
2022-11-14T02:52:44.066Z,99.90
2022-11-14T02:55:32.721Z,99.90
2022-11-14T02:58:19.916Z,99.90
2022-11-14T03:01:20.355Z,99.90
2022-11-14T03:04:08.548Z,99.90
2022-11-14T03:06:55.683Z,99.90
2022-11-14T03:09:43.306Z,99.90
2022-11-14T03:12:32.237Z,99.90
2022-11-14T03:15:19.788Z,99.90
2022-11-14T03:18:07.231Z,99.90
2022-11-14T03:20:54.895Z,99.90
2022-11-14T03:23:42.910Z,99.90
2022-11-14T03:26:30.028Z,99.90
2022-11-14T03:29:18.664Z,99.90
2022-11-14T03:32:06.656Z,99.90
2022-11-14T03:34:53.939Z,99.90
2022-11-14T03:37:41.401Z,99.90
2022-11-14T03:40:28.716Z,99.90
2022-11-14T03:43:16.531Z,99.90
2022-11-14T03:46:06.049Z,99.90
2022-11-14T03:48:53.446Z,99.90
2022-11-14T03:51:57.984Z,99.90
2022-11-14T03:54:45.538Z,99.90
2022-11-14T03:57:32.780Z,99.90
2022-11-14T04:00:20.332Z,99.90
2022-11-14T04:03:09.151Z,99.90
2022-11-14T04:05:56.792Z,99.90
2022-11-14T04:08:44.144Z,99.90
2022-11-14T04:11:31.408Z,99.90
2022-11-14T04:14:19.780Z,99.90
2022-11-14T04:17:24.278Z,99.90
2022-11-14T04:20:31.859Z,99.90
2022-11-14T04:23:19.498Z,99.90
2022-11-14T04:26:06.832Z,99.90
2022-11-14T04:28:54.338Z,99.90
2022-11-14T04:31:41.756Z,99.90
2022-11-14T04:34:28.927Z,99.90
2022-11-14T04:37:35.226Z,99.90
2022-11-14T04:40:22.987Z,99.90
2022-11-14T04:43:10.373Z,99.90
2022-11-14T04:45:57.738Z,99.90
2022-11-14T04:48:45.218Z,99.90
2022-11-14T04:51:32.627Z,99.90
2022-11-14T04:54:21.517Z,99.90
2022-11-14T04:57:09.198Z,99.90
2022-11-14T04:59:56.422Z,99.90
2022-11-14T05:02:45.872Z,99.90
2022-11-14T05:05:36.881Z,99.90
2022-11-14T05:08:26.648Z,99.90
2022-11-14T05:11:18.075Z,99.90
2022-11-14T05:14:05.735Z,99.90
2022-11-14T05:16:53.076Z,99.90
2022-11-14T05:19:40.476Z,99.90
2022-11-14T05:22:27.929Z,99.90
2022-11-14T05:25:15.187Z,99.90
2022-11-14T05:28:03.923Z,99.90
2022-11-14T05:30:51.599Z,99.90
2022-11-14T05:33:39.186Z,99.90
2022-11-14T05:36:27.198Z,99.90
2022-11-14T05:39:14.509Z,99.90
2022-11-14T05:42:01.831Z,99.90
2022-11-14T05:44:50.866Z,99.90
2022-11-14T05:47:38.119Z,99.90
2022-11-14T05:50:25.311Z,99.90
2022-11-14T05:53:13.018Z,99.90
2022-11-14T05:56:02.847Z,99.90
2022-11-14T05:58:50.329Z,99.90
2022-11-14T06:01:39.131Z,99.90
2022-11-14T06:04:26.570Z,99.90
2022-11-14T06:07:31.027Z,99.90
2022-11-14T06:10:18.530Z,99.90
2022-11-14T06:13:05.746Z,99.90
2022-11-14T06:15:53.172Z,99.90
2022-11-14T06:18:42.908Z,99.90
2022-11-14T06:21:30.319Z,99.90
2022-11-14T06:24:17.818Z,99.90
2022-11-14T06:27:22.385Z,99.90
2022-11-14T06:30:11.229Z,99.90
2022-11-14T06:32:59.584Z,99.90
2022-11-14T06:35:48.190Z,99.90
2022-11-14T06:38:37.092Z,99.90
2022-11-14T06:41:25.132Z,99.90
2022-11-14T06:44:12.693Z,99.90
2022-11-14T06:46:59.994Z,99.90
2022-11-14T06:49:47.376Z,99.90
2022-11-14T06:52:53.544Z,99.90
2022-11-14T06:55:41.339Z,99.90
2022-11-14T06:58:30.241Z,99.90
2022-11-14T07:01:19.575Z,99.90
2022-11-14T07:04:07.248Z,99.90
2022-11-14T07:06:54.660Z,99.90
2022-11-14T07:10:01.191Z,99.90
2022-11-14T07:12:49.258Z,99.90
2022-11-14T07:15:36.790Z,99.90
2022-11-14T07:18:24.088Z,99.90
2022-11-14T07:21:13.501Z,99.90
2022-11-14T07:24:00.883Z,99.90
2022-11-14T07:26:49.594Z,99.90
2022-11-14T07:29:37.298Z,99.90
2022-11-14T07:32:24.749Z,99.90
2022-11-14T07:35:11.955Z,99.90
2022-11-14T07:38:08.882Z,99.90
2022-11-14T07:40:59.958Z,99.90
2022-11-14T07:44:06.627Z,99.90
2022-11-14T07:46:54.190Z,99.90
2022-11-14T07:49:41.670Z,99.90
2022-11-14T07:52:31.562Z,99.90
2022-11-14T07:55:19.000Z,99.90
2022-11-14T07:58:08.783Z,99.90
2022-11-14T08:00:57.671Z,99.90
2022-11-14T08:03:46.447Z,99.90
2022-11-14T08:06:34.256Z,99.90
2022-11-14T08:09:23.368Z,99.90
2022-11-14T08:12:10.728Z,99.90
2022-11-14T08:14:58.118Z,99.90
2022-11-14T08:17:47.014Z,99.90
2022-11-14T08:20:34.863Z,99.90
2022-11-14T08:23:22.238Z,99.90
2022-11-14T08:26:09.428Z,99.90
2022-11-14T08:28:58.505Z,99.90
2022-11-14T08:31:47.719Z,99.90
2022-11-14T08:34:37.145Z,99.90
2022-11-14T08:37:24.453Z,99.90
2022-11-14T08:40:13.051Z,99.90
2022-11-14T08:43:02.523Z,99.90
2022-11-14T08:45:50.087Z,99.90
2022-11-14T08:48:37.335Z,99.90
2022-11-14T08:51:26.061Z,99.90
2022-11-14T08:54:30.799Z,99.90
2022-11-14T08:57:18.630Z,99.90
2022-11-14T09:00:06.500Z,99.90
2022-11-14T09:02:54.112Z,99.90
2022-11-14T09:05:41.971Z,99.90
2022-11-14T09:08:31.728Z,99.90
2022-11-14T09:11:19.562Z,99.90
2022-11-14T09:14:06.954Z,99.90
2022-11-14T09:16:54.304Z,99.90
2022-11-14T09:19:41.805Z,99.90
2022-11-14T09:22:29.251Z,99.90
2022-11-14T09:25:18.081Z,99.90
2022-11-14T09:28:07.294Z,99.90
2022-11-14T09:30:54.741Z,99.90
2022-11-14T09:33:42.122Z,99.90
2022-11-14T09:36:29.709Z,99.90
2022-11-14T09:39:17.329Z,99.90
2022-11-14T09:42:20.222Z,99.90
2022-11-14T09:45:13.633Z,99.90
2022-11-14T09:48:08.313Z,99.90
2022-11-14T09:51:09.472Z,99.90
2022-11-14T09:54:03.318Z,99.90
2022-11-14T09:56:51.536Z,99.90
2022-11-14T09:59:40.560Z,99.90
2022-11-14T10:02:44.466Z,99.90
2022-11-14T10:05:51.397Z,99.90
2022-11-14T10:08:52.344Z,99.90
2022-11-14T10:11:44.138Z,99.90
2022-11-14T10:14:53.409Z,99.90
2022-11-14T10:18:04.168Z,99.90
2022-11-14T10:21:13.647Z,99.90
2022-11-14T10:24:12.109Z,99.90
2022-11-14T10:27:03.775Z,99.90
2022-11-14T10:30:07.775Z,99.90
2022-11-14T10:33:24.144Z,99.90
2022-11-14T10:36:20.854Z,99.90
2022-11-14T10:39:17.443Z,99.90
2022-11-14T10:42:13.793Z,99.90
2022-11-14T10:45:06.844Z,99.90
2022-11-14T10:47:58.361Z,99.90
2022-11-14T10:51:09.029Z,99.90
2022-11-14T10:53:59.819Z,99.90
2022-11-14T10:56:51.326Z,99.90
2022-11-14T10:59:38.913Z,99.90
2022-11-14T11:02:28.908Z,99.90
2022-11-14T11:05:25.581Z,99.90
2022-11-14T11:08:46.483Z,99.90
2022-11-14T11:11:34.328Z,99.90
2022-11-14T11:14:21.933Z,99.90
2022-11-14T11:17:33.289Z,99.90
2022-11-14T11:20:34.487Z,99.90
2022-11-14T11:23:26.900Z,99.90
2022-11-14T11:26:21.063Z,99.90
2022-11-14T11:29:16.352Z,99.90
2022-11-14T11:32:03.779Z,99.90
2022-11-14T11:34:53.537Z,99.90
2022-11-14T11:37:46.285Z,99.90
2022-11-14T11:40:33.887Z,99.90
2022-11-14T11:43:38.908Z,99.90
2022-11-14T11:46:48.544Z,99.90
2022-11-14T11:49:42.396Z,99.90
2022-11-14T11:52:35.892Z,99.90
2022-11-14T11:55:27.442Z,99.90
2022-11-14T11:58:22.536Z,99.90
2022-11-14T12:01:13.211Z,99.90
2022-11-14T12:04:04.307Z,99.90
2022-11-14T12:06:59.885Z,99.90
2022-11-14T12:10:09.984Z,99.70
2022-11-14T12:13:51.535Z,99.60
2022-11-14T12:17:00.931Z,99.30
2022-11-14T12:20:15.171Z,98.30
2022-11-14T12:23:23.517Z,98.30
2022-11-14T12:26:32.225Z,96.50
2022-11-14T12:29:42.865Z,96.80
2022-11-14T12:32:51.280Z,96.60
2022-11-14T12:35:39.661Z,97.10
2022-11-14T12:38:48.852Z,97.40
2022-11-14T12:41:58.060Z,97.40
2022-11-14T12:44:46.900Z,97.10
2022-11-14T12:47:34.752Z,95.50
2022-11-14T12:50:44.075Z,94.50
2022-11-14T12:53:45.942Z,94.60
2022-11-14T12:56:54.311Z,94.70
2022-11-14T12:59:51.410Z,94.50
2022-11-14T13:03:35.354Z,94.30
2022-11-14T13:06:27.096Z,94.20
2022-11-14T13:09:33.937Z,94.10
2022-11-14T13:12:45.914Z,94.20
2022-11-14T13:15:52.647Z,95.00
2022-11-14T13:19:10.426Z,95.80
2022-11-14T13:22:37.394Z,96.20
2022-11-14T13:25:25.558Z,97.20
2022-11-14T13:29:07.100Z,97.40
2022-11-14T13:31:56.604Z,97.80
2022-11-14T13:34:54.571Z,97.90
2022-11-14T13:38:12.915Z,97.90
2022-11-14T13:41:13.465Z,98.00
2022-11-14T13:44:21.056Z,97.80
2022-11-14T13:47:40.119Z,97.50
2022-11-14T13:50:31.694Z,97.70
2022-11-14T13:53:23.966Z,97.00
2022-11-14T13:56:26.398Z,96.30
2022-11-14T13:59:50.978Z,96.90
2022-11-14T14:03:03.748Z,96.80
2022-11-14T14:06:07.678Z,96.80
2022-11-14T14:09:07.418Z,97.20
2022-11-14T14:12:29.777Z,97.20
2022-11-14T14:15:26.694Z,97.50
2022-11-14T14:18:42.139Z,97.70
2022-11-14T14:21:41.227Z,97.80
2022-11-14T14:24:43.321Z,98.20
2022-11-14T14:27:38.996Z,98.40
2022-11-14T14:30:28.185Z,98.50
2022-11-14T14:33:16.852Z,98.70
2022-11-14T14:36:04.423Z,98.80
2022-11-14T14:38:52.289Z,99.20
2022-11-14T14:41:39.692Z,99.20
2022-11-14T14:44:30.089Z,99.60
2022-11-14T14:47:29.123Z,99.60
2022-11-14T14:50:18.964Z,99.70
2022-11-14T14:53:06.944Z,99.80
2022-11-14T14:55:56.970Z,99.90
2022-11-14T14:58:44.626Z,99.90
2022-11-14T15:01:35.679Z,99.80
2022-11-14T15:04:26.546Z,99.80
2022-11-14T15:07:21.695Z,99.60
2022-11-14T15:10:10.069Z,99.10
2022-11-14T15:12:58.628Z,97.00
2022-11-14T15:15:46.415Z,97.40
2022-11-14T15:18:35.056Z,98.30
2022-11-14T15:21:28.709Z,98.80
2022-11-14T15:24:18.119Z,99.20
2022-11-14T15:27:07.139Z,99.20
2022-11-14T15:29:58.318Z,99.20
2022-11-14T15:32:51.394Z,99.60
2022-11-14T15:35:40.285Z,99.90
2022-11-14T15:38:44.998Z,99.90
2022-11-14T15:41:33.548Z,99.90
2022-11-14T15:44:31.934Z,99.90
2022-11-14T15:47:25.503Z,99.90
2022-11-14T15:50:30.007Z,99.90
2022-11-14T15:53:24.275Z,99.90
2022-11-14T15:56:14.855Z,99.90
2022-11-14T15:59:02.411Z,99.90
2022-11-14T16:01:52.583Z,99.90
2022-11-14T16:04:45.969Z,99.90
2022-11-14T16:07:34.810Z,99.90
2022-11-14T16:10:24.232Z,99.90
2022-11-14T16:13:13.132Z,99.90
2022-11-14T16:16:00.857Z,99.90
2022-11-14T16:18:48.238Z,99.90
2022-11-14T16:21:36.163Z,99.90
2022-11-14T16:24:26.668Z,99.90
2022-11-14T16:27:15.765Z,99.90
2022-11-14T16:30:04.552Z,99.90
2022-11-14T16:32:53.224Z,99.90
2022-11-14T16:35:40.590Z,99.90
2022-11-14T16:38:49.791Z,99.90
2022-11-14T16:41:39.334Z,99.90
2022-11-14T16:44:26.653Z,99.90
2022-11-14T16:47:16.123Z,99.90
2022-11-14T16:50:03.339Z,99.90
2022-11-14T16:52:50.961Z,99.90
2022-11-14T16:55:38.292Z,99.90
2022-11-14T16:58:42.985Z,99.90
2022-11-14T17:01:30.540Z,99.90
2022-11-14T17:04:19.156Z,99.90
2022-11-14T17:07:06.790Z,99.90
2022-11-14T17:09:53.949Z,99.90
2022-11-14T17:12:41.258Z,99.90
2022-11-14T17:15:28.446Z,99.90
2022-11-14T17:18:15.772Z,99.90
2022-11-14T17:21:08.076Z,99.90
2022-11-14T17:23:56.673Z,99.90
2022-11-14T17:26:44.346Z,99.90
2022-11-14T17:29:32.047Z,99.90
2022-11-14T17:32:19.371Z,99.90
2022-11-14T17:35:07.584Z,99.90
2022-11-14T17:38:00.320Z,99.90
2022-11-14T17:40:48.194Z,99.90
2022-11-14T17:43:39.707Z,99.90
2022-11-14T17:46:27.565Z,99.90
2022-11-14T17:49:14.860Z,99.90
2022-11-14T17:52:01.999Z,99.90
2022-11-14T17:54:50.770Z,99.90
2022-11-14T17:57:38.518Z,99.90
2022-11-14T18:00:26.010Z,99.90
2022-11-14T18:03:13.559Z,99.90
2022-11-14T18:06:07.845Z,99.90
2022-11-14T18:08:56.224Z,99.90
2022-11-14T18:11:45.164Z,99.90
2022-11-14T18:14:32.564Z,99.90
2022-11-14T18:17:19.848Z,99.90
2022-11-14T18:20:08.172Z,99.90
2022-11-14T18:22:56.041Z,99.90
2022-11-14T18:25:43.601Z,99.90
2022-11-14T18:28:32.571Z,99.90
2022-11-14T18:31:20.241Z,99.90
2022-11-14T18:34:07.596Z,99.90
2022-11-14T18:36:54.879Z,99.90
2022-11-14T18:39:42.104Z,99.90
2022-11-14T18:42:29.321Z,99.90
2022-11-14T18:45:18.290Z,99.90
2022-11-14T18:48:05.999Z,99.90
2022-11-14T18:50:53.384Z,99.90
2022-11-14T18:53:41.107Z,99.90
2022-11-14T18:56:28.833Z,99.90
2022-11-14T18:59:16.181Z,99.90
2022-11-14T19:02:04.976Z,99.90
2022-11-14T19:04:52.388Z,99.90
2022-11-14T19:07:39.830Z,99.90
2022-11-14T19:10:27.521Z,99.90
2022-11-14T19:13:15.388Z,99.90
2022-11-14T19:16:04.208Z,99.90
2022-11-14T19:18:53.287Z,99.90
2022-11-14T19:21:41.199Z,99.90
2022-11-14T19:24:28.579Z,99.90
2022-11-14T19:27:16.418Z,99.90
2022-11-14T19:30:03.841Z,99.90
2022-11-14T19:32:51.104Z,99.90
2022-11-14T19:35:41.115Z,99.90
2022-11-14T19:38:28.550Z,99.90
2022-11-14T19:41:22.566Z,99.90
2022-11-14T19:44:10.098Z,99.90
2022-11-14T19:46:57.928Z,99.90
2022-11-14T19:49:45.128Z,99.90
2022-11-14T19:52:33.846Z,99.90
2022-11-14T19:55:21.368Z,99.90
2022-11-14T19:58:10.643Z,99.90
2022-11-14T20:01:05.540Z,99.90
2022-11-14T20:03:55.164Z,99.90
2022-11-14T20:06:43.273Z,99.90
2022-11-14T20:09:32.245Z,99.90
2022-11-14T20:12:20.749Z,99.90
2022-11-14T20:15:09.155Z,99.90
2022-11-14T20:17:56.470Z,99.90
2022-11-14T20:20:45.751Z,99.90
2022-11-14T20:23:34.413Z,99.90
2022-11-14T20:26:24.019Z,99.90
2022-11-14T20:29:11.363Z,99.90
2022-11-14T20:31:58.607Z,99.90
2022-11-14T20:34:45.783Z,99.90
2022-11-14T20:37:33.047Z,99.90
2022-11-14T20:40:20.400Z,99.90
2022-11-14T20:43:27.077Z,99.90
2022-11-14T20:46:16.852Z,99.90
2022-11-14T20:49:04.496Z,99.90
2022-11-14T20:51:52.128Z,99.90
2022-11-14T20:54:39.428Z,99.90
2022-11-14T20:57:26.707Z,99.90
2022-11-14T21:00:16.334Z,99.90
2022-11-14T21:03:06.149Z,99.90
2022-11-14T21:05:53.930Z,99.90
2022-11-14T21:08:42.439Z,99.90
2022-11-14T21:11:29.866Z,99.90
2022-11-14T21:14:17.488Z,99.90
2022-11-14T21:17:06.192Z,99.90
2022-11-14T21:19:53.668Z,99.90
2022-11-14T21:22:40.804Z,99.90
2022-11-14T21:25:28.312Z,99.90
2022-11-14T21:28:15.541Z,99.90
2022-11-14T21:31:03.844Z,99.90
2022-11-14T21:33:54.198Z,99.90
2022-11-14T21:36:46.430Z,99.90
2022-11-14T21:39:34.161Z,99.90
2022-11-14T21:42:21.581Z,99.90
2022-11-14T21:45:10.060Z,99.90
2022-11-14T21:47:57.602Z,99.90
2022-11-14T21:50:46.252Z,99.90
2022-11-14T21:53:51.583Z,99.90
2022-11-14T21:56:39.138Z,99.90
2022-11-14T21:59:29.193Z,99.90
2022-11-14T22:02:33.927Z,99.90
2022-11-14T22:05:21.534Z,99.90
2022-11-14T22:08:10.412Z,99.90
2022-11-14T22:11:02.863Z,99.90
2022-11-14T22:13:50.710Z,99.90
2022-11-14T22:16:37.857Z,99.90
2022-11-14T22:19:25.516Z,99.90
2022-11-14T22:22:13.242Z,99.90
2022-11-14T22:25:19.391Z,99.90
2022-11-14T22:28:06.991Z,99.90
2022-11-14T22:31:06.001Z,99.90
2022-11-14T22:33:55.359Z,99.90
2022-11-14T22:36:42.523Z,99.90
2022-11-14T22:39:29.690Z,99.90
2022-11-14T22:42:18.572Z,99.90
2022-11-14T22:45:08.421Z,99.90
2022-11-14T22:47:58.713Z,99.90
2022-11-14T22:50:45.818Z,99.90
2022-11-14T22:53:34.787Z,99.90
2022-11-14T22:56:23.961Z,99.90
2022-11-14T22:59:12.990Z,99.90
2022-11-14T23:02:00.701Z,99.90
2022-11-14T23:04:47.747Z,99.90
2022-11-14T23:07:35.515Z,99.90
2022-11-14T23:10:22.754Z,99.90
2022-11-14T23:13:10.193Z,99.90
2022-11-14T23:15:58.961Z,99.90
2022-11-14T23:18:46.981Z,99.90
2022-11-14T23:21:36.027Z,99.90
2022-11-14T23:24:23.690Z,99.90
2022-11-14T23:27:10.916Z,99.90
2022-11-14T23:29:58.288Z,99.90
2022-11-14T23:33:04.603Z,99.90
2022-11-14T23:35:52.054Z,99.90
2022-11-14T23:38:39.261Z,99.90
2022-11-14T23:41:26.921Z,99.90
2022-11-14T23:44:14.381Z,99.90
2022-11-14T23:47:01.761Z,99.90
2022-11-14T23:49:50.398Z,99.90
2022-11-14T23:52:37.959Z,99.90
2022-11-14T23:55:25.398Z,99.90
2022-11-14T23:58:12.588Z,99.90
